sensor_id;sensor_type;location;lat;lon;timestamp;temperature;humidity
36652;DHT22;53334;51.976;20.144;2022-12-07T00:01:40;25.80;55.80
36652;DHT22;53334;51.976;20.144;2022-12-07T00:04:16;25.70;55.60
36652;DHT22;53334;51.976;20.144;2022-12-07T00:06:54;25.70;55.40
36652;DHT22;53334;51.976;20.144;2022-12-07T00:09:28;25.70;55.10
36652;DHT22;53334;51.976;20.144;2022-12-07T00:12:04;25.70;55.00
36652;DHT22;53334;51.976;20.144;2022-12-07T00:14:39;25.70;54.90
36652;DHT22;53334;51.976;20.144;2022-12-07T00:17:14;25.70;54.90
36652;DHT22;53334;51.976;20.144;2022-12-07T00:19:51;25.70;54.90
36652;DHT22;53334;51.976;20.144;2022-12-07T00:22:27;25.70;54.80
36652;DHT22;53334;51.976;20.144;2022-12-07T00:25:03;25.70;54.70
36652;DHT22;53334;51.976;20.144;2022-12-07T00:27:39;25.70;54.70
36652;DHT22;53334;51.976;20.144;2022-12-07T00:30:15;25.70;54.60
36652;DHT22;53334;51.976;20.144;2022-12-07T00:32:50;25.60;54.40
36652;DHT22;53334;51.976;20.144;2022-12-07T00:35:24;25.70;54.30
36652;DHT22;53334;51.976;20.144;2022-12-07T00:37:59;25.60;54.30
36652;DHT22;53334;51.976;20.144;2022-12-07T00:40:33;25.60;54.30
36652;DHT22;53334;51.976;20.144;2022-12-07T00:43:07;25.60;54.20
36652;DHT22;53334;51.976;20.144;2022-12-07T00:45:41;25.70;54.00
36652;DHT22;53334;51.976;20.144;2022-12-07T00:48:15;25.70;53.80
36652;DHT22;53334;51.976;20.144;2022-12-07T00:50:49;25.60;53.70
36652;DHT22;53334;51.976;20.144;2022-12-07T00:53:24;25.60;53.70
36652;DHT22;53334;51.976;20.144;2022-12-07T00:55:58;25.70;53.70
36652;DHT22;53334;51.976;20.144;2022-12-07T00:58:32;25.60;53.70
36652;DHT22;53334;51.976;20.144;2022-12-07T01:01:06;25.70;53.70
36652;DHT22;53334;51.976;20.144;2022-12-07T01:03:41;25.60;53.80
36652;DHT22;53334;51.976;20.144;2022-12-07T01:06:14;25.60;53.70
36652;DHT22;53334;51.976;20.144;2022-12-07T01:08:50;25.60;53.80
36652;DHT22;53334;51.976;20.144;2022-12-07T01:11:26;25.60;53.60
36652;DHT22;53334;51.976;20.144;2022-12-07T01:14:00;25.60;53.90
36652;DHT22;53334;51.976;20.144;2022-12-07T01:16:34;25.60;54.70
36652;DHT22;53334;51.976;20.144;2022-12-07T01:19:08;25.60;54.60
36652;DHT22;53334;51.976;20.144;2022-12-07T01:21:42;25.60;54.80
36652;DHT22;53334;51.976;20.144;2022-12-07T01:24:17;25.60;55.30
36652;DHT22;53334;51.976;20.144;2022-12-07T01:26:51;25.60;55.00
36652;DHT22;53334;51.976;20.144;2022-12-07T01:29:24;25.60;55.00
36652;DHT22;53334;51.976;20.144;2022-12-07T01:31:58;25.60;55.50
36652;DHT22;53334;51.976;20.144;2022-12-07T01:34:32;25.60;55.30
36652;DHT22;53334;51.976;20.144;2022-12-07T01:37:05;25.50;55.50
36652;DHT22;53334;51.976;20.144;2022-12-07T01:39:40;25.60;55.30
36652;DHT22;53334;51.976;20.144;2022-12-07T01:42:14;25.50;55.60
36652;DHT22;53334;51.976;20.144;2022-12-07T01:47:56;25.50;55.50
36652;DHT22;53334;51.976;20.144;2022-12-07T01:50:31;25.50;55.40
36652;DHT22;53334;51.976;20.144;2022-12-07T01:53:07;25.50;55.30
36652;DHT22;53334;51.976;20.144;2022-12-07T01:55:47;25.50;55.40
36652;DHT22;53334;51.976;20.144;2022-12-07T01:58:24;25.60;55.50
36652;DHT22;53334;51.976;20.144;2022-12-07T02:00:58;25.50;55.40
36652;DHT22;53334;51.976;20.144;2022-12-07T02:03:36;25.60;55.40
36652;DHT22;53334;51.976;20.144;2022-12-07T02:06:15;25.60;55.40
36652;DHT22;53334;51.976;20.144;2022-12-07T02:08:50;25.60;55.50
36652;DHT22;53334;51.976;20.144;2022-12-07T02:11:25;25.60;55.60
36652;DHT22;53334;51.976;20.144;2022-12-07T02:13:59;25.60;55.70
36652;DHT22;53334;51.976;20.144;2022-12-07T02:16:40;25.60;55.60
36652;DHT22;53334;51.976;20.144;2022-12-07T02:22:51;25.60;55.60
36652;DHT22;53334;51.976;20.144;2022-12-07T02:25:39;25.60;55.70
36652;DHT22;53334;51.976;20.144;2022-12-07T02:28:21;25.60;55.80
36652;DHT22;53334;51.976;20.144;2022-12-07T02:31:06;25.50;55.60
36652;DHT22;53334;51.976;20.144;2022-12-07T02:33:45;25.60;55.70
36652;DHT22;53334;51.976;20.144;2022-12-07T02:36:22;25.60;55.70
36652;DHT22;53334;51.976;20.144;2022-12-07T02:39:03;25.60;55.80
36652;DHT22;53334;51.976;20.144;2022-12-07T02:41:42;25.50;55.60
36652;DHT22;53334;51.976;20.144;2022-12-07T02:44:19;25.60;55.80
36652;DHT22;53334;51.976;20.144;2022-12-07T02:46:58;25.50;55.70
36652;DHT22;53334;51.976;20.144;2022-12-07T02:49:37;25.50;55.70
36652;DHT22;53334;51.976;20.144;2022-12-07T02:52:12;25.50;55.70
36652;DHT22;53334;51.976;20.144;2022-12-07T02:54:45;25.50;55.70
36652;DHT22;53334;51.976;20.144;2022-12-07T02:57:34;25.50;55.80
36652;DHT22;53334;51.976;20.144;2022-12-07T03:00:12;25.50;55.70
36652;DHT22;53334;51.976;20.144;2022-12-07T03:02:53;25.50;55.60
36652;DHT22;53334;51.976;20.144;2022-12-07T03:05:58;25.60;55.80
36652;DHT22;53334;51.976;20.144;2022-12-07T03:08:40;25.60;55.90
36652;DHT22;53334;51.976;20.144;2022-12-07T03:11:17;25.50;55.80
36652;DHT22;53334;51.976;20.144;2022-12-07T03:14:00;25.60;55.90
36652;DHT22;53334;51.976;20.144;2022-12-07T03:16:40;25.50;55.80
36652;DHT22;53334;51.976;20.144;2022-12-07T03:19:18;25.50;55.80
36652;DHT22;53334;51.976;20.144;2022-12-07T03:21:57;25.50;55.70
36652;DHT22;53334;51.976;20.144;2022-12-07T03:24:34;25.50;55.80
36652;DHT22;53334;51.976;20.144;2022-12-07T03:27:13;25.60;55.80
36652;DHT22;53334;51.976;20.144;2022-12-07T03:29:51;25.50;55.80
36652;DHT22;53334;51.976;20.144;2022-12-07T03:32:30;25.50;55.80
36652;DHT22;53334;51.976;20.144;2022-12-07T03:35:12;25.50;55.80
36652;DHT22;53334;51.976;20.144;2022-12-07T03:37:52;25.60;55.90
36652;DHT22;53334;51.976;20.144;2022-12-07T03:40:32;25.50;55.80
36652;DHT22;53334;51.976;20.144;2022-12-07T03:43:08;25.50;55.70
36652;DHT22;53334;51.976;20.144;2022-12-07T03:45:44;25.50;55.80
36652;DHT22;53334;51.976;20.144;2022-12-07T03:48:22;25.50;55.70
36652;DHT22;53334;51.976;20.144;2022-12-07T03:51:06;25.50;55.60
36652;DHT22;53334;51.976;20.144;2022-12-07T03:53:48;25.50;55.70
36652;DHT22;53334;51.976;20.144;2022-12-07T03:56:25;25.50;55.70
36652;DHT22;53334;51.976;20.144;2022-12-07T03:59:02;25.50;55.70
36652;DHT22;53334;51.976;20.144;2022-12-07T04:01:36;25.50;55.70
36652;DHT22;53334;51.976;20.144;2022-12-07T04:04:10;25.50;55.70
36652;DHT22;53334;51.976;20.144;2022-12-07T04:06:45;25.50;55.70
36652;DHT22;53334;51.976;20.144;2022-12-07T04:09:19;25.50;55.70
36652;DHT22;53334;51.976;20.144;2022-12-07T04:11:53;25.50;55.80
36652;DHT22;53334;51.976;20.144;2022-12-07T04:14:27;25.50;55.80
36652;DHT22;53334;51.976;20.144;2022-12-07T04:17:01;25.50;55.80
36652;DHT22;53334;51.976;20.144;2022-12-07T04:19:35;25.50;55.80
36652;DHT22;53334;51.976;20.144;2022-12-07T04:22:10;25.50;55.80
36652;DHT22;53334;51.976;20.144;2022-12-07T04:24:44;25.50;55.80
36652;DHT22;53334;51.976;20.144;2022-12-07T04:27:17;25.50;55.80
36652;DHT22;53334;51.976;20.144;2022-12-07T04:29:51;25.50;55.80
36652;DHT22;53334;51.976;20.144;2022-12-07T04:32:25;25.50;55.80
36652;DHT22;53334;51.976;20.144;2022-12-07T04:34:59;25.50;55.80
36652;DHT22;53334;51.976;20.144;2022-12-07T04:37:34;25.50;55.70
36652;DHT22;53334;51.976;20.144;2022-12-07T04:40:09;25.50;55.60
36652;DHT22;53334;51.976;20.144;2022-12-07T04:42:43;25.50;55.40
36652;DHT22;53334;51.976;20.144;2022-12-07T04:45:18;25.50;55.50
36652;DHT22;53334;51.976;20.144;2022-12-07T04:47:52;25.50;55.80
36652;DHT22;53334;51.976;20.144;2022-12-07T04:50:26;25.50;56.00
36652;DHT22;53334;51.976;20.144;2022-12-07T04:53:03;25.50;56.00
36652;DHT22;53334;51.976;20.144;2022-12-07T04:55:37;25.50;56.20
36652;DHT22;53334;51.976;20.144;2022-12-07T04:58:12;25.60;56.50
36652;DHT22;53334;51.976;20.144;2022-12-07T05:00:46;25.50;56.30
36652;DHT22;53334;51.976;20.144;2022-12-07T05:03:21;25.50;56.60
36652;DHT22;53334;51.976;20.144;2022-12-07T05:05:55;25.60;56.80
36652;DHT22;53334;51.976;20.144;2022-12-07T05:08:31;25.60;56.90
36652;DHT22;53334;51.976;20.144;2022-12-07T05:11:06;25.60;56.70
36652;DHT22;53334;51.976;20.144;2022-12-07T05:13:40;25.60;56.60
36652;DHT22;53334;51.976;20.144;2022-12-07T05:16:14;25.70;56.80
36652;DHT22;53334;51.976;20.144;2022-12-07T05:18:48;25.70;56.50
36652;DHT22;53334;51.976;20.144;2022-12-07T05:21:22;25.60;56.30
36652;DHT22;53334;51.976;20.144;2022-12-07T05:23:58;25.60;55.90
36652;DHT22;53334;51.976;20.144;2022-12-07T05:26:32;25.60;55.60
36652;DHT22;53334;51.976;20.144;2022-12-07T05:29:06;25.60;55.40
36652;DHT22;53334;51.976;20.144;2022-12-07T05:31:40;25.60;55.10
36652;DHT22;53334;51.976;20.144;2022-12-07T05:34:15;25.60;54.80
36652;DHT22;53334;51.976;20.144;2022-12-07T05:36:49;25.60;54.60
36652;DHT22;53334;51.976;20.144;2022-12-07T05:39:24;25.60;54.30
36652;DHT22;53334;51.976;20.144;2022-12-07T05:41:58;25.50;53.90
36652;DHT22;53334;51.976;20.144;2022-12-07T05:44:47;25.50;53.60
36652;DHT22;53334;51.976;20.144;2022-12-07T05:47:21;25.50;53.20
36652;DHT22;53334;51.976;20.144;2022-12-07T05:49:55;25.50;53.00
36652;DHT22;53334;51.976;20.144;2022-12-07T05:52:29;25.50;52.70
36652;DHT22;53334;51.976;20.144;2022-12-07T05:55:05;25.50;52.50
36652;DHT22;53334;51.976;20.144;2022-12-07T05:57:39;25.50;52.30
36652;DHT22;53334;51.976;20.144;2022-12-07T06:00:33;25.50;52.10
36652;DHT22;53334;51.976;20.144;2022-12-07T06:03:06;25.50;52.00
36652;DHT22;53334;51.976;20.144;2022-12-07T06:05:41;25.40;51.80
36652;DHT22;53334;51.976;20.144;2022-12-07T06:08:15;25.40;51.50
36652;DHT22;53334;51.976;20.144;2022-12-07T06:10:50;25.40;51.30
36652;DHT22;53334;51.976;20.144;2022-12-07T06:13:45;25.40;51.00
36652;DHT22;53334;51.976;20.144;2022-12-07T06:16:18;25.40;50.90
36652;DHT22;53334;51.976;20.144;2022-12-07T06:18:52;25.40;50.60
36652;DHT22;53334;51.976;20.144;2022-12-07T06:21:26;25.40;50.60
36652;DHT22;53334;51.976;20.144;2022-12-07T06:24:00;25.30;50.70
36652;DHT22;53334;51.976;20.144;2022-12-07T06:26:35;25.30;50.30
36652;DHT22;53334;51.976;20.144;2022-12-07T06:29:10;25.30;49.80
36652;DHT22;53334;51.976;20.144;2022-12-07T06:31:44;25.30;49.50
36652;DHT22;53334;51.976;20.144;2022-12-07T06:34:22;25.30;49.40
36652;DHT22;53334;51.976;20.144;2022-12-07T06:36:56;25.30;49.10
36652;DHT22;53334;51.976;20.144;2022-12-07T06:39:31;25.30;49.30
36652;DHT22;53334;51.976;20.144;2022-12-07T06:42:06;25.30;49.20
36652;DHT22;53334;51.976;20.144;2022-12-07T06:44:40;25.30;49.30
36652;DHT22;53334;51.976;20.144;2022-12-07T06:47:13;25.30;49.50
36652;DHT22;53334;51.976;20.144;2022-12-07T06:50:08;25.30;49.90
36652;DHT22;53334;51.976;20.144;2022-12-07T06:52:42;25.30;50.00
36652;DHT22;53334;51.976;20.144;2022-12-07T06:55:16;25.30;50.10
36652;DHT22;53334;51.976;20.144;2022-12-07T06:57:51;25.30;50.30
36652;DHT22;53334;51.976;20.144;2022-12-07T07:00:25;25.30;50.40
36652;DHT22;53334;51.976;20.144;2022-12-07T07:02:59;25.30;50.50
36652;DHT22;53334;51.976;20.144;2022-12-07T07:05:33;25.30;50.60
36652;DHT22;53334;51.976;20.144;2022-12-07T07:08:07;25.40;50.70
36652;DHT22;53334;51.976;20.144;2022-12-07T07:10:56;25.40;50.70
36652;DHT22;53334;51.976;20.144;2022-12-07T07:13:32;25.40;50.80
36652;DHT22;53334;51.976;20.144;2022-12-07T07:16:07;25.40;51.00
36652;DHT22;53334;51.976;20.144;2022-12-07T07:18:41;25.40;50.90
36652;DHT22;53334;51.976;20.144;2022-12-07T07:21:15;25.40;51.00
36652;DHT22;53334;51.976;20.144;2022-12-07T07:23:48;25.40;51.20
36652;DHT22;53334;51.976;20.144;2022-12-07T07:26:22;25.40;51.10
36652;DHT22;53334;51.976;20.144;2022-12-07T07:28:57;25.40;51.40
36652;DHT22;53334;51.976;20.144;2022-12-07T07:31:31;25.40;51.30
36652;DHT22;53334;51.976;20.144;2022-12-07T07:34:07;25.50;51.50
36652;DHT22;53334;51.976;20.144;2022-12-07T07:36:41;25.50;51.50
36652;DHT22;53334;51.976;20.144;2022-12-07T07:39:15;25.50;51.60
36652;DHT22;53334;51.976;20.144;2022-12-07T07:41:49;25.50;51.50
36652;DHT22;53334;51.976;20.144;2022-12-07T07:44:31;25.50;51.50
36652;DHT22;53334;51.976;20.144;2022-12-07T07:47:06;25.50;51.50
36652;DHT22;53334;51.976;20.144;2022-12-07T07:49:40;25.50;51.50
36652;DHT22;53334;51.976;20.144;2022-12-07T07:52:19;25.50;51.40
36652;DHT22;53334;51.976;20.144;2022-12-07T07:54:53;25.50;51.30
36652;DHT22;53334;51.976;20.144;2022-12-07T07:57:27;25.50;51.20
36652;DHT22;53334;51.976;20.144;2022-12-07T08:00:05;25.50;51.30
36652;DHT22;53334;51.976;20.144;2022-12-07T08:02:44;25.50;51.10
36652;DHT22;53334;51.976;20.144;2022-12-07T08:05:18;25.50;51.00
36652;DHT22;53334;51.976;20.144;2022-12-07T08:07:52;25.50;50.70
36652;DHT22;53334;51.976;20.144;2022-12-07T08:10:26;25.50;50.50
36652;DHT22;53334;51.976;20.144;2022-12-07T08:13:00;25.50;50.50
36652;DHT22;53334;51.976;20.144;2022-12-07T08:15:48;25.50;50.70
36652;DHT22;53334;51.976;20.144;2022-12-07T08:18:22;25.50;50.70
36652;DHT22;53334;51.976;20.144;2022-12-07T08:20:58;25.50;50.90
36652;DHT22;53334;51.976;20.144;2022-12-07T08:23:33;25.50;51.10
36652;DHT22;53334;51.976;20.144;2022-12-07T08:26:13;25.50;50.90
36652;DHT22;53334;51.976;20.144;2022-12-07T08:28:47;25.50;50.80
36652;DHT22;53334;51.976;20.144;2022-12-07T08:31:23;25.50;50.80
36652;DHT22;53334;51.976;20.144;2022-12-07T08:33:57;25.50;50.70
36652;DHT22;53334;51.976;20.144;2022-12-07T08:36:31;25.50;50.70
36652;DHT22;53334;51.976;20.144;2022-12-07T08:39:05;25.60;51.40
36652;DHT22;53334;51.976;20.144;2022-12-07T08:41:59;25.60;50.80
36652;DHT22;53334;51.976;20.144;2022-12-07T08:44:33;25.50;50.70
36652;DHT22;53334;51.976;20.144;2022-12-07T08:47:10;25.50;50.90
36652;DHT22;53334;51.976;20.144;2022-12-07T08:49:47;25.50;51.10
36652;DHT22;53334;51.976;20.144;2022-12-07T08:52:22;25.50;51.10
36652;DHT22;53334;51.976;20.144;2022-12-07T08:54:57;25.50;51.20
36652;DHT22;53334;51.976;20.144;2022-12-07T08:57:34;25.50;51.50
36652;DHT22;53334;51.976;20.144;2022-12-07T09:00:09;25.50;51.60
36652;DHT22;53334;51.976;20.144;2022-12-07T09:02:45;25.50;51.60
36652;DHT22;53334;51.976;20.144;2022-12-07T09:05:19;25.50;51.80
36652;DHT22;53334;51.976;20.144;2022-12-07T09:07:56;25.50;51.90
36652;DHT22;53334;51.976;20.144;2022-12-07T09:10:31;25.50;51.80
36652;DHT22;53334;51.976;20.144;2022-12-07T09:13:05;25.50;51.80
36652;DHT22;53334;51.976;20.144;2022-12-07T09:15:38;25.50;51.70
36652;DHT22;53334;51.976;20.144;2022-12-07T09:18:14;25.50;51.70
36652;DHT22;53334;51.976;20.144;2022-12-07T09:20:48;25.50;51.50
36652;DHT22;53334;51.976;20.144;2022-12-07T09:23:21;25.60;51.60
36652;DHT22;53334;51.976;20.144;2022-12-07T09:25:58;25.50;51.70
36652;DHT22;53334;51.976;20.144;2022-12-07T09:28:34;25.50;51.70
36652;DHT22;53334;51.976;20.144;2022-12-07T09:31:08;25.50;51.50
36652;DHT22;53334;51.976;20.144;2022-12-07T09:34:00;25.50;51.40
36652;DHT22;53334;51.976;20.144;2022-12-07T09:36:34;25.50;51.30
36652;DHT22;53334;51.976;20.144;2022-12-07T09:39:08;25.50;51.30
36652;DHT22;53334;51.976;20.144;2022-12-07T09:41:43;25.50;51.50
36652;DHT22;53334;51.976;20.144;2022-12-07T09:44:23;25.50;51.40
36652;DHT22;53334;51.976;20.144;2022-12-07T09:46:57;25.50;51.60
36652;DHT22;53334;51.976;20.144;2022-12-07T09:49:33;25.50;51.70
36652;DHT22;53334;51.976;20.144;2022-12-07T09:52:19;25.50;51.50
36652;DHT22;53334;51.976;20.144;2022-12-07T09:54:53;25.50;51.60
36652;DHT22;53334;51.976;20.144;2022-12-07T09:57:30;25.50;51.70
36652;DHT22;53334;51.976;20.144;2022-12-07T10:00:13;25.50;51.70
36652;DHT22;53334;51.976;20.144;2022-12-07T10:02:51;25.60;51.80
36652;DHT22;53334;51.976;20.144;2022-12-07T10:05:29;25.50;51.50
36652;DHT22;53334;51.976;20.144;2022-12-07T10:08:04;25.50;51.60
36652;DHT22;53334;51.976;20.144;2022-12-07T10:10:38;25.60;51.60
36652;DHT22;53334;51.976;20.144;2022-12-07T10:13:14;25.60;51.60
36652;DHT22;53334;51.976;20.144;2022-12-07T10:15:50;25.60;51.50
36652;DHT22;53334;51.976;20.144;2022-12-07T10:18:30;25.60;51.60
36652;DHT22;53334;51.976;20.144;2022-12-07T10:21:15;25.60;51.60
36652;DHT22;53334;51.976;20.144;2022-12-07T10:24:03;25.60;51.30
36652;DHT22;53334;51.976;20.144;2022-12-07T10:26:41;25.60;51.20
36652;DHT22;53334;51.976;20.144;2022-12-07T10:29:24;25.60;51.30
36652;DHT22;53334;51.976;20.144;2022-12-07T10:32:00;25.60;51.10
36652;DHT22;53334;51.976;20.144;2022-12-07T10:34:36;25.60;50.80
36652;DHT22;53334;51.976;20.144;2022-12-07T10:37:18;25.60;50.40
36652;DHT22;53334;51.976;20.144;2022-12-07T10:39:54;25.60;50.30
36652;DHT22;53334;51.976;20.144;2022-12-07T10:42:29;25.50;50.00
36652;DHT22;53334;51.976;20.144;2022-12-07T10:45:14;25.50;49.90
36652;DHT22;53334;51.976;20.144;2022-12-07T10:47:52;25.50;49.70
36652;DHT22;53334;51.976;20.144;2022-12-07T10:50:59;25.50;49.20
36652;DHT22;53334;51.976;20.144;2022-12-07T10:53:44;25.50;49.20
36652;DHT22;53334;51.976;20.144;2022-12-07T11:02:25;25.50;49.20
36652;DHT22;53334;51.976;20.144;2022-12-07T11:05:07;25.50;49.30
36652;DHT22;53334;51.976;20.144;2022-12-07T11:07:46;25.50;48.90
36652;DHT22;53334;51.976;20.144;2022-12-07T11:10:38;25.50;49.30
36652;DHT22;53334;51.976;20.144;2022-12-07T11:13:25;25.50;48.70
36652;DHT22;53334;51.976;20.144;2022-12-07T11:16:13;25.50;48.40
36652;DHT22;53334;51.976;20.144;2022-12-07T11:18:59;25.50;48.10
36652;DHT22;53334;51.976;20.144;2022-12-07T11:21:45;25.50;48.00
36652;DHT22;53334;51.976;20.144;2022-12-07T11:24:27;25.50;47.40
36652;DHT22;53334;51.976;20.144;2022-12-07T11:27:16;25.50;46.90
36652;DHT22;53334;51.976;20.144;2022-12-07T11:30:08;25.50;46.80
36652;DHT22;53334;51.976;20.144;2022-12-07T11:32:55;25.50;46.80
36652;DHT22;53334;51.976;20.144;2022-12-07T11:35:41;25.50;47.20
36652;DHT22;53334;51.976;20.144;2022-12-07T11:38:18;25.50;47.10
36652;DHT22;53334;51.976;20.144;2022-12-07T11:41:02;25.50;47.10
36652;DHT22;53334;51.976;20.144;2022-12-07T11:43:54;25.50;47.20
36652;DHT22;53334;51.976;20.144;2022-12-07T11:46:42;25.50;47.30
36652;DHT22;53334;51.976;20.144;2022-12-07T11:49:23;25.50;47.50
36652;DHT22;53334;51.976;20.144;2022-12-07T11:52:03;25.50;47.40
36652;DHT22;53334;51.976;20.144;2022-12-07T11:54:41;25.50;47.60
36652;DHT22;53334;51.976;20.144;2022-12-07T11:57:20;25.50;47.70
36652;DHT22;53334;51.976;20.144;2022-12-07T12:00:03;25.50;47.90
36652;DHT22;53334;51.976;20.144;2022-12-07T12:02:46;25.50;47.90
36652;DHT22;53334;51.976;20.144;2022-12-07T12:05:22;25.50;48.00
36652;DHT22;53334;51.976;20.144;2022-12-07T12:08:03;25.50;47.90
36652;DHT22;53334;51.976;20.144;2022-12-07T12:11:02;25.50;48.00
36652;DHT22;53334;51.976;20.144;2022-12-07T12:14:17;25.50;47.90
36652;DHT22;53334;51.976;20.144;2022-12-07T12:20:32;25.50;48.20
36652;DHT22;53334;51.976;20.144;2022-12-07T12:23:12;25.50;48.10
36652;DHT22;53334;51.976;20.144;2022-12-07T12:25:51;25.50;48.20
36652;DHT22;53334;51.976;20.144;2022-12-07T12:28:29;25.50;48.40
36652;DHT22;53334;51.976;20.144;2022-12-07T12:31:13;25.50;48.30
36652;DHT22;53334;51.976;20.144;2022-12-07T12:33:49;25.50;48.10
36652;DHT22;53334;51.976;20.144;2022-12-07T12:36:28;25.50;48.00
36652;DHT22;53334;51.976;20.144;2022-12-07T12:39:17;25.50;48.00
36652;DHT22;53334;51.976;20.144;2022-12-07T12:42:02;25.50;47.50
36652;DHT22;53334;51.976;20.144;2022-12-07T12:45:04;25.50;47.50
36652;DHT22;53334;51.976;20.144;2022-12-07T12:47:51;25.50;47.50
36652;DHT22;53334;51.976;20.144;2022-12-07T12:50:29;25.50;46.90
36652;DHT22;53334;51.976;20.144;2022-12-07T12:53:19;25.50;46.80
36652;DHT22;53334;51.976;20.144;2022-12-07T12:56:25;25.50;46.80
36652;DHT22;53334;51.976;20.144;2022-12-07T12:59:26;25.50;46.70
36652;DHT22;53334;51.976;20.144;2022-12-07T13:02:16;25.40;46.10
36652;DHT22;53334;51.976;20.144;2022-12-07T13:04:55;25.40;46.20
36652;DHT22;53334;51.976;20.144;2022-12-07T13:07:59;25.50;45.10
36652;DHT22;53334;51.976;20.144;2022-12-07T13:10:40;25.50;45.30
36652;DHT22;53334;51.976;20.144;2022-12-07T13:13:34;25.40;44.50
36652;DHT22;53334;51.976;20.144;2022-12-07T13:16:37;25.40;45.60
36652;DHT22;53334;51.976;20.144;2022-12-07T13:22:50;25.40;44.50
36652;DHT22;53334;51.976;20.144;2022-12-07T13:25:38;25.30;43.70
36652;DHT22;53334;51.976;20.144;2022-12-07T13:28:16;25.40;42.70
36652;DHT22;53334;51.976;20.144;2022-12-07T13:31:03;25.40;43.20
36652;DHT22;53334;51.976;20.144;2022-12-07T13:33:38;25.30;42.60
36652;DHT22;53334;51.976;20.144;2022-12-07T13:36:14;25.40;42.10
36652;DHT22;53334;51.976;20.144;2022-12-07T13:38:53;25.30;42.20
36652;DHT22;53334;51.976;20.144;2022-12-07T13:41:29;25.30;41.60
36652;DHT22;53334;51.976;20.144;2022-12-07T13:44:08;25.30;41.40
36652;DHT22;53334;51.976;20.144;2022-12-07T13:46:50;25.30;41.30
36652;DHT22;53334;51.976;20.144;2022-12-07T13:49:27;25.30;41.60
36652;DHT22;53334;51.976;20.144;2022-12-07T13:52:15;25.20;40.80
36652;DHT22;53334;51.976;20.144;2022-12-07T13:54:56;25.30;40.80
36652;DHT22;53334;51.976;20.144;2022-12-07T13:57:33;25.20;41.30
36652;DHT22;53334;51.976;20.144;2022-12-07T14:00:15;25.20;40.60
36652;DHT22;53334;51.976;20.144;2022-12-07T14:02:56;25.20;40.40
36652;DHT22;53334;51.976;20.144;2022-12-07T14:05:32;25.20;40.20
36652;DHT22;53334;51.976;20.144;2022-12-07T14:08:22;25.20;40.30
36652;DHT22;53334;51.976;20.144;2022-12-07T14:10:57;25.20;40.30
36652;DHT22;53334;51.976;20.144;2022-12-07T14:13:35;25.20;40.10
36652;DHT22;53334;51.976;20.144;2022-12-07T14:16:22;25.20;40.20
36652;DHT22;53334;51.976;20.144;2022-12-07T14:18:58;25.20;38.30
36652;DHT22;53334;51.976;20.144;2022-12-07T14:21:33;25.10;33.40
36652;DHT22;53334;51.976;20.144;2022-12-07T14:24:15;25.00;30.70
36652;DHT22;53334;51.976;20.144;2022-12-07T14:26:50;24.90;30.50
36652;DHT22;53334;51.976;20.144;2022-12-07T14:29:33;24.90;31.80
36652;DHT22;53334;51.976;20.144;2022-12-07T14:32:25;24.80;32.40
36652;DHT22;53334;51.976;20.144;2022-12-07T14:35:08;24.80;33.70
36652;DHT22;53334;51.976;20.144;2022-12-07T14:37:45;24.80;33.30
36652;DHT22;53334;51.976;20.144;2022-12-07T14:40:21;24.80;33.30
36652;DHT22;53334;51.976;20.144;2022-12-07T14:42:59;24.80;33.40
36652;DHT22;53334;51.976;20.144;2022-12-07T14:45:35;24.70;33.50
36652;DHT22;53334;51.976;20.144;2022-12-07T14:48:11;24.70;34.00
36652;DHT22;53334;51.976;20.144;2022-12-07T14:51:09;24.70;33.80
36652;DHT22;53334;51.976;20.144;2022-12-07T14:54:05;24.70;34.30
36652;DHT22;53334;51.976;20.144;2022-12-07T14:56:40;24.70;34.30
36652;DHT22;53334;51.976;20.144;2022-12-07T14:59:14;24.70;34.10
36652;DHT22;53334;51.976;20.144;2022-12-07T15:01:50;24.70;34.80
36652;DHT22;53334;51.976;20.144;2022-12-07T15:04:24;24.70;34.90
36652;DHT22;53334;51.976;20.144;2022-12-07T15:07:00;24.70;35.60
36652;DHT22;53334;51.976;20.144;2022-12-07T15:09:34;24.70;35.50
36652;DHT22;53334;51.976;20.144;2022-12-07T15:12:08;24.80;35.80
36652;DHT22;53334;51.976;20.144;2022-12-07T15:14:42;24.70;36.50
36652;DHT22;53334;51.976;20.144;2022-12-07T15:17:18;24.70;37.40
36652;DHT22;53334;51.976;20.144;2022-12-07T15:20:04;24.70;37.60
36652;DHT22;53334;51.976;20.144;2022-12-07T15:22:38;24.80;38.10
36652;DHT22;53334;51.976;20.144;2022-12-07T15:25:13;24.80;38.40
36652;DHT22;53334;51.976;20.144;2022-12-07T15:27:47;24.80;38.60
36652;DHT22;53334;51.976;20.144;2022-12-07T15:30:20;24.80;38.80
36652;DHT22;53334;51.976;20.144;2022-12-07T15:32:56;24.80;40.00
36652;DHT22;53334;51.976;20.144;2022-12-07T15:35:30;24.80;39.30
36652;DHT22;53334;51.976;20.144;2022-12-07T15:38:03;24.80;39.50
36652;DHT22;53334;51.976;20.144;2022-12-07T15:40:37;24.80;39.60
36652;DHT22;53334;51.976;20.144;2022-12-07T15:43:11;24.80;40.60
36652;DHT22;53334;51.976;20.144;2022-12-07T15:45:59;24.80;40.10
36652;DHT22;53334;51.976;20.144;2022-12-07T15:48:34;24.80;40.20
36652;DHT22;53334;51.976;20.144;2022-12-07T15:51:09;24.80;40.40
36652;DHT22;53334;51.976;20.144;2022-12-07T15:53:43;24.80;40.60
36652;DHT22;53334;51.976;20.144;2022-12-07T15:56:17;24.90;40.90
36652;DHT22;53334;51.976;20.144;2022-12-07T15:58:51;24.80;40.90
36652;DHT22;53334;51.976;20.144;2022-12-07T16:01:25;24.80;41.20
36652;DHT22;53334;51.976;20.144;2022-12-07T16:04:01;24.90;41.40
36652;DHT22;53334;51.976;20.144;2022-12-07T16:06:35;24.80;41.50
36652;DHT22;53334;51.976;20.144;2022-12-07T16:09:09;24.80;41.60
36652;DHT22;53334;51.976;20.144;2022-12-07T16:11:43;24.90;41.80
36652;DHT22;53334;51.976;20.144;2022-12-07T16:14:17;24.90;41.80
36652;DHT22;53334;51.976;20.144;2022-12-07T16:16:52;24.80;41.90
36652;DHT22;53334;51.976;20.144;2022-12-07T16:19:27;24.90;42.10
36652;DHT22;53334;51.976;20.144;2022-12-07T16:22:02;24.90;42.20
36652;DHT22;53334;51.976;20.144;2022-12-07T16:24:36;24.90;42.30
36652;DHT22;53334;51.976;20.144;2022-12-07T16:27:10;24.90;42.50
36652;DHT22;53334;51.976;20.144;2022-12-07T16:29:45;24.90;42.50
36652;DHT22;53334;51.976;20.144;2022-12-07T16:32:20;24.90;42.70
36652;DHT22;53334;51.976;20.144;2022-12-07T16:34:55;24.90;42.80
36652;DHT22;53334;51.976;20.144;2022-12-07T16:37:29;24.90;42.80
36652;DHT22;53334;51.976;20.144;2022-12-07T16:40:04;24.90;42.90
36652;DHT22;53334;51.976;20.144;2022-12-07T16:42:39;24.90;43.10